Time;durP1;ratioP1;P1;durP2;ratioP2;P2;SDS_P1;SDS_P2;PMS_P1;PMS_P2;Temp;Humidity;BMP_temperature;BMP_pressure;BME280_temperature;BME280_humidity;BME280_pressure;Samples;Min_cycle;Max_cycle;Signal;HPM_P1;HPM_P2
2022/06/07 00:02:28;;;;;;;;;;;;;;;11.92;99.30;99606.10;1722323;83;21021;-71
2022/06/07 00:04:55;;;;;;;;;;;;;;;11.87;99.38;99596.63;1722223;83;20405;-70
2022/06/07 00:07:21;;;;;;;;;;;;;;;11.84;99.48;99599.46;1722406;83;21490;-70
2022/06/07 00:09:48;;;;;;;;;;;;;;;11.84;99.57;99601.41;1722123;83;20117;-70
2022/06/07 00:12:17;;;;;;;;;;;;;;;11.82;99.68;99607.22;1722187;83;20120;-70
2022/06/07 00:14:44;;;;;;;;;;;;;;;11.79;99.92;99607.88;1714516;83;20345;-70
2022/06/07 00:17:12;;;;;;;;;;;;;;;11.76;100.00;99597.48;1701401;84;20168;-70
2022/06/07 00:19:38;;;;;;;;;;;;;;;11.73;100.00;99599.50;1701501;84;21561;-70
2022/06/07 00:22:05;;;;;;;;;;;;;;;11.70;100.00;99598.77;1701376;84;20097;-70
2022/06/07 00:24:32;;;;;;;;;;;;;;;11.67;100.00;99598.03;1701510;83;20124;-70
2022/06/07 00:26:58;;;;;;;;;;;;;;;11.65;100.00;99600.86;1701478;83;20427;-70
2022/06/07 00:29:25;;;;;;;;;;;;;;;11.62;100.00;99598.75;1701512;83;20096;-70
2022/06/07 00:31:52;;;;;;;;;;;;;;;11.58;100.00;99598.02;1701512;83;21765;-70
2022/06/07 00:34:19;;;;;;;;;;;;;;;11.55;100.00;99597.28;1701416;84;20085;-70
2022/06/07 00:36:45;;;;;;;;;;;;;;;11.54;100.00;99597.64;1701561;84;20097;-70
2022/06/07 00:39:12;;;;;;;;;;;;;;;11.51;100.00;99595.53;1701459;83;20112;-70
2022/06/07 00:41:38;;;;;;;;;;;;;;;11.48;100.00;99598.35;1701568;84;20097;-70
2022/06/07 00:44:27;;;;;;;;;;;;;;;11.46;100.00;99597.86;1701470;84;21783;-70
2022/06/07 00:46:57;;;;;;;;;;;;;;;11.46;100.00;99598.42;1701351;84;20077;-70
2022/06/07 00:49:25;;;;;;;;;;;;;;;11.41;100.00;99592.52;1701847;83;20085;-70
2022/06/07 00:51:51;;;;;;;;;;;;;;;11.39;100.00;99593.40;1701445;84;20180;-69
2022/06/07 00:54:21;;;;;;;;;;;;;;;11.37;100.00;99596.22;1701473;84;20173;-70
2022/06/07 00:56:51;;;;;;;;;;;;;;;11.34;100.00;99594.92;1701509;83;20142;-70
2022/06/07 00:59:18;;;;;;;;;;;;;;;11.31;100.00;99587.88;1701408;84;20121;-70
2022/06/07 01:01:45;;;;;;;;;;;;;;;11.29;100.00;99590.95;1701474;83;20097;-69
2022/06/07 01:04:12;;;;;;;;;;;;;;;11.29;100.00;99586.83;1701427;84;20421;-69
2022/06/07 01:12:10;;;;;;;;;;;;;;;11.23;100.00;99583.41;1701476;83;20444;-69
2022/06/07 01:14:37;;;;;;;;;;;;;;;11.20;100.00;99582.67;1701721;83;20440;-71
2022/06/07 01:17:04;;;;;;;;;;;;;;;11.17;100.00;99584.69;1701318;84;20097;-69
2022/06/07 01:19:33;;;;;;;;;;;;;;;11.16;100.00;99584.44;1701594;84;20125;-68
2022/06/07 01:22:01;;;;;;;;;;;;;;;11.13;100.00;99582.89;1701537;83;21139;-68
2022/06/07 01:24:27;;;;;;;;;;;;;;;11.10;100.00;99582.96;1701469;83;20121;-68
2022/06/07 01:27:03;;;;;;;;;;;;;;;11.09;100.00;99585.47;1701599;83;20113;-69
2022/06/07 01:29:30;;;;;;;;;;;;;;;11.06;100.00;99586.66;1690835;82;20088;-68
2022/06/07 01:31:58;;;;;;;;;;;;;;;11.03;100.00;99586.73;1673448;86;20087;-68
2022/06/07 01:34:26;;;;;;;;;;;;;;;10.99;100.00;99584.38;1673223;86;21300;-68
2022/06/07 01:36:57;;;;;;;;;;;;;;;10.98;100.00;99586.06;1673262;84;20164;-68
2022/06/07 01:42:10;;;;;;;;;;;;;;;10.94;100.00;99600.22;1673391;84;20123;-68
2022/06/07 01:44:40;;;;;;;;;;;;;;;10.92;100.00;99593.67;1673313;86;20087;-68
2022/06/07 01:47:10;;;;;;;;;;;;;;;10.92;100.00;99590.92;1673361;84;21161;-69
2022/06/07 01:49:39;;;;;;;;;;;;;;;10.93;100.00;99591.17;1673209;86;20087;-69
2022/06/07 01:52:07;;;;;;;;;;;;;;;10.93;100.00;99588.42;1673369;86;32683;-69
2022/06/07 01:54:36;;;;;;;;;;;;;;;10.94;100.00;99580.99;1673163;86;20649;-69
2022/06/07 01:57:05;;;;;;;;;;;;;;;10.94;100.00;99580.42;1673378;86;20126;-68
2022/06/07 01:59:32;;;;;;;;;;;;;;;10.93;100.00;99578.80;1686743;84;21136;-69
2022/06/07 02:01:59;;;;;;;;;;;;;;;10.93;100.00;99580.75;1673279;84;20159;-68
2022/06/07 02:04:26;;;;;;;;;;;;;;;10.93;100.00;99575.25;1673323;86;20099;-68
2022/06/07 02:06:53;;;;;;;;;;;;;;;10.93;100.00;99571.94;1673432;86;20718;-69
2022/06/07 02:09:21;;;;;;;;;;;;;;;10.94;100.00;99580.42;1674064;85;20227;-68
2022/06/07 02:11:49;;;;;;;;;;;;;;;10.95;100.00;99582.61;1673301;84;20431;-68
2022/06/07 02:14:16;;;;;;;;;;;;;;;10.96;100.00;99581.48;1673197;86;20099;-69
2022/06/07 02:16:44;;;;;;;;;;;;;;;10.96;100.00;99575.42;1682813;84;20095;-69
2022/06/07 02:19:12;;;;;;;;;;;;;;;10.96;100.00;99580.11;1693234;84;20103;-69
2022/06/07 02:21:42;;;;;;;;;;;;;;;10.97;100.00;99583.91;1704435;82;20089;-69
2022/06/07 02:24:09;;;;;;;;;;;;;;;10.97;100.00;99582.54;1698672;83;21148;-67
2022/06/07 02:26:51;;;;;;;;;;;;;;;10.98;100.00;99579.20;1693189;85;20099;-67
2022/06/07 02:29:25;;;;;;;;;;;;;;;11.00;100.00;99575.58;1693303;84;20172;-67
2022/06/07 02:31:56;;;;;;;;;;;;;;;11.00;100.00;99576.38;1693576;85;20122;-68
2022/06/07 02:34:24;;;;;;;;;;;;;;;11.04;100.00;99582.86;1693274;85;20099;-68
2022/06/07 02:36:53;;;;;;;;;;;;;;;11.08;100.00;99582.47;1693303;85;22067;-67
2022/06/07 02:39:19;;;;;;;;;;;;;;;11.13;100.00;99578.77;1693266;85;20091;-67
2022/06/07 02:41:45;;;;;;;;;;;;;;;11.18;100.00;99576.69;1693398;85;20115;-68
2022/06/07 02:44:12;;;;;;;;;;;;;;;11.25;100.00;99585.28;1693338;84;20095;-68
2022/06/07 02:46:38;;;;;;;;;;;;;;;11.31;100.00;99580.44;1693426;84;20087;-68
2022/06/07 02:49:05;;;;;;;;;;;;;;;11.37;100.00;99579.73;1693505;85;21212;-68
2022/06/07 02:51:32;;;;;;;;;;;;;;;11.45;100.00;99588.56;1693330;84;20115;-70
2022/06/07 02:53:59;;;;;;;;;;;;;;;11.50;100.00;99577.41;1693328;85;20091;-68
2022/06/07 02:56:26;;;;;;;;;;;;;;;11.59;100.00;99585.08;1693271;85;20120;-69
2022/06/07 02:58:53;;;;;;;;;;;;;;;11.68;100.00;99585.09;1693320;85;20103;-69
2022/06/07 03:01:21;;;;;;;;;;;;;;;11.76;100.00;99580.98;1693397;84;21153;-69
2022/06/07 03:03:48;;;;;;;;;;;;;;;11.85;100.00;99580.45;1693205;84;20119;-68
2022/06/07 03:06:14;;;;;;;;;;;;;;;11.94;100.00;99583.77;1693491;84;20459;-69
2022/06/07 03:08:41;;;;;;;;;;;;;;;12.03;100.00;99581.83;1693244;84;20118;-68
2022/06/07 03:11:09;;;;;;;;;;;;;;;12.11;100.00;99578.27;1693421;84;20099;-68
2022/06/07 03:13:38;;;;;;;;;;;;;;;12.19;100.00;99578.23;1693411;84;21814;-68
2022/06/07 03:16:07;;;;;;;;;;;;;;;12.30;100.00;99582.02;1693247;85;20120;-68
2022/06/07 03:18:33;;;;;;;;;;;;;;;12.40;100.00;99581.69;1693597;85;20426;-68
2022/06/07 03:21:01;;;;;;;;;;;;;;;12.52;100.00;99580.45;1693316;84;20510;-68
2022/06/07 03:23:28;;;;;;;;;;;;;;;12.62;100.00;99591.69;1693260;85;20100;-68
2022/06/07 03:26:07;;;;;;;;;;;;;;;12.73;100.00;99581.90;1693176;85;21237;-68
2022/06/07 03:28:37;;;;;;;;;;;;;;;12.86;100.00;99585.02;1693218;85;20096;-68
2022/06/07 03:31:07;;;;;;;;;;;;;;;13.01;100.00;99588.61;1667923;85;20087;-68
2022/06/07 03:33:35;;;;;;;;;;;;;;;13.15;100.00;99585.62;1667673;85;20931;-68
2022/06/07 03:36:08;;;;;;;;;;;;;;;13.29;100.00;99579.89;1693445;85;20451;-68
2022/06/07 03:38:35;;;;;;;;;;;;;;;13.44;100.00;99577.37;1667454;85;21769;-70
2022/06/07 03:41:03;;;;;;;;;;;;;;;13.61;100.00;99583.34;1667843;85;20442;-69
2022/06/07 03:43:30;;;;;;;;;;;;;;;13.77;100.00;99578.05;1693247;84;20124;-69
2022/06/07 03:46:09;;;;;;;;;;;;;;;13.93;100.00;99572.70;1693356;85;20443;-69
2022/06/07 03:48:37;;;;;;;;;;;;;;;14.08;100.00;99577.03;1692648;85;20099;-69
2022/06/07 03:51:03;;;;;;;;;;;;;;;14.26;100.00;99581.02;1693329;84;21920;-68
2022/06/07 03:53:31;;;;;;;;;;;;;;;14.41;100.00;99583.16;1693545;85;20181;-67
2022/06/07 03:55:58;;;;;;;;;;;;;;;14.58;100.00;99579.41;1693383;84;20108;-68
2022/06/07 03:58:27;;;;;;;;;;;;;;;14.73;100.00;99573.23;1693263;84;20123;-68
2022/06/07 04:00:56;;;;;;;;;;;;;;;14.89;100.00;99571.42;1693280;85;20087;-68
2022/06/07 04:03:23;;;;;;;;;;;;;;;15.02;100.00;99570.25;1693220;85;21144;-68
2022/06/07 04:05:50;;;;;;;;;;;;;;;15.16;100.00;99567.95;1693331;85;20426;-68
2022/06/07 04:08:19;;;;;;;;;;;;;;;15.30;100.00;99564.03;1693269;85;20115;-68
2022/06/07 04:10:49;;;;;;;;;;;;;;;15.46;100.00;99569.09;1693349;85;20099;-68
2022/06/07 04:13:19;;;;;;;;;;;;;;;15.60;100.00;99570.14;1693274;85;20079;-68
2022/06/07 04:15:47;;;;;;;;;;;;;;;15.75;100.00;99570.20;1693361;84;21840;-68
2022/06/07 04:18:14;;;;;;;;;;;;;;;15.89;97.25;99570.41;1676338;85;20108;-68
2022/06/07 04:20:41;;;;;;;;;;;;;;;16.03;94.81;99562.52;1621365;87;20160;-68
2022/06/07 04:23:10;;;;;;;;;;;;;;;16.17;92.34;99560.94;1621564;87;20159;-68
2022/06/07 04:25:39;;;;;;;;;;;;;;;16.32;89.19;99565.48;1640202;87;20144;-68
2022/06/07 04:28:06;;;;;;;;;;;;;;;16.46;87.29;99570.84;1640175;87;21171;-68
2022/06/07 04:30:35;;;;;;;;;;;;;;;16.61;86.08;99569.84;1640180;86;20088;-68
2022/06/07 04:33:03;;;;;;;;;;;;;;;16.74;84.58;99571.42;1640156;87;20107;-68
2022/06/07 04:35:30;;;;;;;;;;;;;;;16.89;83.74;99571.98;1640311;87;20457;-69
2022/06/07 04:37:58;;;;;;;;;;;;;;;17.01;83.14;99566.36;1640083;87;20107;-69
2022/06/07 04:40:27;;;;;;;;;;;;;;;17.15;83.24;99568.09;1639737;87;21198;-69
2022/06/07 04:42:55;;;;;;;;;;;;;;;17.32;82.75;99572.47;1640228;87;20128;-69
2022/06/07 04:45:23;;;;;;;;;;;;;;;17.48;80.91;99576.00;1639819;87;20083;-70
2022/06/07 04:47:51;;;;;;;;;;;;;;;17.66;79.32;99568.70;1634847;87;20124;-69
2022/06/07 04:50:19;;;;;;;;;;;;;;;17.85;77.67;99563.76;1640174;87;20084;-68
2022/06/07 04:52:46;;;;;;;;;;;;;;;18.00;75.92;99567.03;1640106;87;21157;-68
2022/06/07 04:55:13;;;;;;;;;;;;;;;18.14;75.31;99568.72;1640054;87;20156;-68
2022/06/07 04:57:40;;;;;;;;;;;;;;;18.27;72.62;99567.98;1640248;87;20104;-68
2022/06/07 05:00:09;;;;;;;;;;;;;;;18.41;72.81;99571.05;1640140;87;20084;-68
2022/06/07 05:02:36;;;;;;;;;;;;;;;18.54;71.99;99568.88;1640200;87;20116;-69
2022/06/07 05:05:05;;;;;;;;;;;;;;;18.67;72.80;99573.14;1640041;87;21140;-69
2022/06/07 05:07:31;;;;;;;;;;;;;;;18.79;72.22;99571.58;1625766;86;20157;-73
2022/06/07 05:10:00;;;;;;;;;;;;;;;18.91;70.66;99578.94;1666229;86;20093;-71
2022/06/07 05:12:35;;;;;;;;;;;;;;;18.99;68.76;99573.72;1666642;86;20118;-71
2022/06/07 05:15:05;;;;;;;;;;;;;;;19.12;68.38;99575.10;1667045;86;20150;-67
2022/06/07 05:17:34;;;;;;;;;;;;;;;19.23;69.51;99576.08;1682948;84;21781;-69
2022/06/07 05:20:02;;;;;;;;;;;;;;;19.34;69.67;99580.43;1706891;84;20536;-68
2022/06/07 05:22:31;;;;;;;;;;;;;;;19.44;70.99;99572.84;1706687;84;20186;-70
2022/06/07 05:24:58;;;;;;;;;;;;;;;19.56;70.28;99577.42;1706960;84;20131;-69
2022/06/07 05:27:26;;;;;;;;;;;;;;;19.66;68.38;99580.92;1706156;84;20116;-73
2022/06/07 05:29:55;;;;;;;;;;;;;;;19.74;68.32;99580.66;1676861;84;21535;-72
2022/06/07 05:32:35;;;;;;;;;;;;;;;19.83;66.27;99585.95;1699324;82;20161;-73
2022/06/07 05:35:05;;;;;;;;;;;;;;;19.93;65.29;99580.31;1678257;85;20154;-71
2022/06/07 05:37:34;;;;;;;;;;;;;;;20.01;64.72;99584.21;1649107;85;21090;-69
2022/06/07 05:40:05;;;;;;;;;;;;;;;20.08;63.52;99584.90;1676092;85;20219;-70
2022/06/07 05:42:33;;;;;;;;;;;;;;;20.11;60.94;99582.75;1693163;84;21090;-69
2022/06/07 05:44:59;;;;;;;;;;;;;;;20.16;60.32;99587.98;1703603;84;20490;-69
2022/06/07 05:47:28;;;;;;;;;;;;;;;20.21;58.45;99583.47;1706453;84;20151;-69
2022/06/07 05:49:55;;;;;;;;;;;;;;;20.26;60.20;99585.09;1706643;84;20471;-70
2022/06/07 05:52:23;;;;;;;;;;;;;;;20.35;59.28;99586.41;1702537;82;20146;-70
2022/06/07 05:54:50;;;;;;;;;;;;;;;20.43;58.05;99586.73;1696594;84;21120;-68
2022/06/07 05:57:18;;;;;;;;;;;;;;;20.47;58.82;99581.20;1706358;84;20115;-69
2022/06/07 05:59:46;;;;;;;;;;;;;;;20.54;58.70;99586.86;1706685;84;20195;-67
2022/06/07 06:02:13;;;;;;;;;;;;;;;20.61;58.76;99584.74;1706520;84;20919;-69
2022/06/07 06:04:40;;;;;;;;;;;;;;;20.70;58.81;99584.64;1706669;84;20207;-70
2022/06/07 06:07:08;;;;;;;;;;;;;;;20.78;56.51;99589.70;1706796;84;21061;-66
2022/06/07 06:12:22;;;;;;;;;;;;;;;20.94;58.39;99585.25;1730065;82;20887;-67
2022/06/07 06:14:55;;;;;;;;;;;;;;;21.05;58.27;99584.76;1735879;82;20120;-68
2022/06/07 06:17:25;;;;;;;;;;;;;;;21.15;56.40;99584.64;1734556;82;20084;-69
2022/06/07 06:19:53;;;;;;;;;;;;;;;21.22;56.45;99581.36;1709483;83;21181;-71
2022/06/07 06:22:20;;;;;;;;;;;;;;;21.31;57.11;99577.64;1726224;83;20200;-66
2022/06/07 06:24:48;;;;;;;;;;;;;;;21.43;57.80;99582.09;1727393;82;20089;-67
2022/06/07 06:27:15;;;;;;;;;;;;;;;21.53;54.09;99579.97;1709765;83;20450;-68
2022/06/07 06:29:44;;;;;;;;;;;;;;;21.59;55.33;99577.02;1728581;82;20112;-68
2022/06/07 06:32:11;;;;;;;;;;;;;;;21.69;54.03;99579.67;1728357;83;21988;-69
2022/06/07 06:34:38;;;;;;;;;;;;;;;21.81;53.35;99578.55;1728157;83;20424;-66
2022/06/07 06:37:08;;;;;;;;;;;;;;;21.91;51.56;99576.42;1728487;82;20155;-67
2022/06/07 06:39:38;;;;;;;;;;;;;;;21.99;50.86;99571.84;1728524;83;20121;-68
2022/06/07 06:42:05;;;;;;;;;;;;;;;22.06;51.77;99569.11;1728732;83;20456;-66
2022/06/07 06:44:34;;;;;;;;;;;;;;;22.16;53.16;99566.16;1727490;82;21212;-68
2022/06/07 06:47:01;;;;;;;;;;;;;;;;;;1723915;83;21217;-66
2022/06/07 06:49:28;;;;;;;;;;;;;;;22.37;49.20;99556.45;1670731;86;20165;-68
2022/06/07 06:51:55;;;;;;;;;;;;;;;22.44;49.18;99557.08;1670437;86;20208;-68
2022/06/07 06:54:29;;;;;;;;;;;;;;;22.50;50.78;99556.09;1670944;85;20141;-69
2022/06/07 06:56:54;;;;;;;;;;;;;;;22.61;52.15;99556.30;1670740;85;21191;-67
2022/06/07 06:59:22;;;;;;;;;;;;;;;22.72;49.42;99549.33;1671150;85;20125;-68
2022/06/07 07:01:51;;;;;;;;;;;;;;;22.79;49.09;99554.97;1671319;86;20101;-69
2022/06/07 07:04:19;;;;;;;;;;;;;;;22.87;48.22;99550.98;1671437;86;20439;-68
2022/06/07 07:06:47;;;;;;;;;;;;;;;22.97;45.49;99557.78;1671425;86;20101;-69
2022/06/07 07:09:17;;;;;;;;;;;;;;;23.01;45.04;99552.39;1672605;84;21094;-64
2022/06/07 07:11:46;;;;;;;;;;;;;;;23.07;44.66;99548.59;1698502;84;20075;-64
2022/06/07 07:14:13;;;;;;;;;;;;;;;23.15;46.14;99551.56;1699655;84;20431;-64
2022/06/07 07:16:47;;;;;;;;;;;;;;;23.26;46.45;99550.16;1699400;84;20111;-64
2022/06/07 07:19:14;;;;;;;;;;;;;;;23.37;42.30;99555.16;1676022;84;20164;-64
2022/06/07 07:21:46;;;;;;;;;;;;;;;23.37;40.84;99553.16;1672700;86;21177;-68
2022/06/07 07:24:16;;;;;;;;;;;;;;;23.37;41.75;99562.16;1672772;86;20105;-68
2022/06/07 07:26:45;;;;;;;;;;;;;;;23.43;44.02;99553.55;1672388;85;20141;-69
2022/06/07 07:29:14;;;;;;;;;;;;;;;23.55;45.01;99559.37;1672549;86;20144;-69
2022/06/07 07:31:41;;;;;;;;;;;;;;;23.67;42.30;99561.16;1652022;86;20101;-67
2022/06/07 07:34:10;;;;;;;;;;;;;;;23.74;42.37;99553.30;1672545;86;21255;-68
2022/06/07 07:36:39;;;;;;;;;;;;;;;23.86;43.38;99552.08;1653470;86;20081;-68
2022/06/07 07:39:06;;;;;;;;;;;;;;;24.02;42.98;99558.03;1672853;86;20089;-65
2022/06/07 07:41:34;;;;;;;;;;;;;;;24.16;41.33;99559.38;1672577;86;20181;-67
2022/06/07 07:44:01;;;;;;;;;;;;;;;24.25;42.16;99547.73;1672902;86;20117;-66
2022/06/07 07:46:32;;;;;;;;;;;;;;;24.38;40.74;99546.67;1672738;86;21255;-67
2022/06/07 07:48:58;;;;;;;;;;;;;;;24.48;41.00;99547.22;1672728;86;20105;-68
2022/06/07 07:51:33;;;;;;;;;;;;;;;24.59;40.27;99546.55;1672627;86;20114;-67
2022/06/07 07:54:01;;;;;;;;;;;;;;;24.69;39.91;99549.89;1672567;86;20612;-68
2022/06/07 07:56:28;;;;;;;;;;;;;;;24.81;38.52;99549.41;1672710;86;20432;-65
2022/06/07 07:58:56;;;;;;;;;;;;;;;24.89;38.79;99552.34;1672519;86;21841;-65
2022/06/07 08:01:24;;;;;;;;;;;;;;;24.94;36.69;99554.71;1675651;85;20543;-65
2022/06/07 08:03:52;;;;;;;;;;;;;;;24.97;40.00;99545.48;1668988;86;20125;-69
2022/06/07 08:06:23;;;;;;;;;;;;;;;25.08;38.00;99546.02;1672234;86;20185;-67
2022/06/07 08:08:51;;;;;;;;;;;;;;;25.15;38.72;99541.74;1672365;86;20128;-70
2022/06/07 08:11:20;;;;;;;;;;;;;;;25.23;35.87;99548.30;1672676;86;21926;-66
2022/06/07 08:13:47;;;;;;;;;;;;;;;25.24;36.43;99551.30;1672771;86;20121;-65
2022/06/07 08:16:14;;;;;;;;;;;;;;;25.27;35.98;99547.66;1664555;85;20157;-67
2022/06/07 08:18:41;;;;;;;;;;;;;;;25.34;36.03;99549.00;1664424;85;20627;-68
2022/06/07 08:21:11;;;;;;;;;;;;;;;25.48;34.52;99548.64;1678607;85;20104;-67
2022/06/07 08:23:38;;;;;;;;;;;;;;;25.73;37.47;99547.02;1678056;85;21225;-70
2022/06/07 08:26:05;;;;;;;;;;;;;;;25.98;35.22;99550.36;1677767;85;20145;-68
2022/06/07 08:28:34;;;;;;;;;;;;;;;26.24;35.28;99549.61;1649008;85;20145;-67
2022/06/07 08:31:02;;;;;;;;;;;;;;;26.55;36.13;99544.00;1678604;84;20703;-68
2022/06/07 08:39:03;;;;;;;;;;;;;;;27.20;34.53;99543.17;1678926;85;20138;-68
2022/06/07 08:41:37;;;;;;;;;;;;;;;27.29;34.13;99540.61;1678871;85;20081;-66
2022/06/07 08:44:10;;;;;;;;;;;;;;;27.31;33.77;99539.56;1678879;85;20149;-68
2022/06/07 08:46:39;;;;;;;;;;;;;;;27.49;34.78;99535.02;1678758;85;20121;-68
2022/06/07 08:49:06;;;;;;;;;;;;;;;27.70;35.00;99533.25;1678518;85;21070;-75
2022/06/07 08:51:52;;;;;;;;;;;;;;;27.85;34.44;99533.74;1678548;85;20229;-71
2022/06/07 08:54:25;;;;;;;;;;;;;;;27.97;34.05;99530.28;1678496;85;20101;-69
2022/06/07 08:56:52;;;;;;;;;;;;;;;28.17;32.90;99535.30;1678616;85;20115;-66
2022/06/07 08:59:21;;;;;;;;;;;;;;;28.09;30.55;99538.09;1678610;85;20125;-66
2022/06/07 09:02:01;;;;;;;;;;;;;;;27.99;31.73;99536.28;1697219;84;21154;-69
2022/06/07 09:04:29;;;;;;;;;;;;;;;28.08;30.81;99532.27;1706325;84;20103;-66
2022/06/07 09:07:03;;;;;;;;;;;;;;;28.28;31.51;99525.84;1706540;84;20120;-67
2022/06/07 09:12:21;;;;;;;;;;;;;;;28.41;30.51;99525.33;1706813;84;20123;-73
2022/06/07 09:14:50;;;;;;;;;;;;;;;28.34;29.96;99526.89;1706819;84;21858;-72
2022/06/07 09:17:23;;;;;;;;;;;;;;;28.28;30.02;99526.64;1706795;84;20103;-73
2022/06/07 09:19:51;;;;;;;;;;;;;;;28.39;30.19;99530.61;1706682;84;20131;-72
2022/06/07 09:22:23;;;;;;;;;;;;;;;28.54;31.46;99525.62;1706924;84;20107;-70
2022/06/07 09:24:53;;;;;;;;;;;;;;;28.66;30.76;99514.88;1706701;84;20180;-70
2022/06/07 09:27:23;;;;;;;;;;;;;;;28.75;31.26;99520.10;1676958;84;21759;-70
2022/06/07 09:29:53;;;;;;;;;;;;;;;28.92;29.80;99516.06;1706404;84;20115;-70
2022/06/07 09:32:20;;;;;;;;;;;;;;;29.02;29.36;99511.38;1706249;84;20119;-70
2022/06/07 09:34:49;;;;;;;;;;;;;;;29.21;29.46;99519.59;1706634;84;20451;-71
2022/06/07 09:37:17;;;;;;;;;;;;;;;29.34;30.83;99503.50;1706086;84;20147;-72
2022/06/07 09:39:44;;;;;;;;;;;;;;;29.21;28.33;99509.08;1706406;84;21810;-69
2022/06/07 09:42:25;;;;;;;;;;;;;;;28.97;28.43;99510.50;1706760;84;20117;-70
2022/06/07 09:45:14;;;;;;;;;;;;;;;28.84;28.02;99506.81;1706673;84;20164;-69
2022/06/07 09:47:40;;;;;;;;;;;;;;;28.95;29.53;99512.17;1706774;84;20151;-71
2022/06/07 09:50:23;;;;;;;;;;;;;;;28.97;30.23;99507.67;1705619;84;20427;-73
2022/06/07 09:52:56;;;;;;;;;;;;;;;29.15;29.91;99510.85;1706741;84;21154;-70
2022/06/07 09:55:29;;;;;;;;;;;;;;;29.25;28.15;99508.98;1701510;84;20502;-70
2022/06/07 09:58:05;;;;;;;;;;;;;;;29.41;30.04;99503.94;1701697;84;20103;-68
2022/06/07 10:00:38;;;;;;;;;;;;;;;29.61;28.80;99503.80;1701320;84;21002;-75
2022/06/07 10:03:18;;;;;;;;;;;;;;;29.86;28.23;99498.24;1701654;84;20434;-70
2022/06/07 10:05:55;;;;;;;;;;;;;;;29.91;28.20;99501.94;1701800;84;21178;-69
2022/06/07 10:08:40;;;;;;;;;;;;;;;29.98;29.33;99500.32;1701467;84;20098;-68
2022/06/07 10:11:23;;;;;;;;;;;;;;;30.14;29.25;99494.59;1701949;84;20087;-69
2022/06/07 10:14:23;;;;;;;;;;;;;;;30.36;28.67;99486.24;1701946;84;20136;-67
2022/06/07 10:16:56;;;;;;;;;;;;;;;30.37;29.75;99485.00;1702030;84;20425;-68
2022/06/07 10:19:36;;;;;;;;;;;;;;;30.30;26.75;99491.50;1700535;84;22129;-67
2022/06/07 10:22:09;;;;;;;;;;;;;;;30.02;26.13;99481.85;1698863;84;20134;-70
2022/06/07 10:24:47;;;;;;;;;;;;;;;29.77;26.33;99481.13;1681615;84;20134;-69
2022/06/07 10:27:17;;;;;;;;;;;;;;;29.72;28.34;99476.02;1698993;84;20202;-70
2022/06/07 10:30:06;;;;;;;;;;;;;;;29.62;27.42;99475.69;1699225;84;20234;-70
2022/06/07 10:32:46;;;;;;;;;;;;;;;29.64;28.55;99471.80;1699100;84;20685;-69
2022/06/07 10:35:39;;;;;;;;;;;;;;;29.75;27.95;99469.46;1699022;84;20143;-68
2022/06/07 10:38:36;;;;;;;;;;;;;;;29.81;29.32;99474.13;1697952;83;20144;-68
2022/06/07 10:41:24;;;;;;;;;;;;;;;29.85;26.83;99468.36;1699233;84;20148;-67
2022/06/07 10:44:16;;;;;;;;;;;;;;;29.81;27.94;99459.98;1699263;84;20140;-67
2022/06/07 10:46:44;;;;;;;;;;;;;;;29.93;28.31;99458.42;1699417;84;21109;-68
2022/06/07 10:49:31;;;;;;;;;;;;;;;29.98;26.70;99458.49;1695729;83;20166;-68
2022/06/07 10:54:56;;;;;;;;;;;;;;;30.16;28.33;99455.92;1669832;86;20113;-69
2022/06/07 10:57:27;;;;;;;;;;;;;;;30.33;26.34;99457.41;1696205;84;20116;-70
2022/06/07 10:59:54;;;;;;;;;;;;;;;30.26;26.41;99463.30;1698927;84;21167;-66
2022/06/07 11:02:40;;;;;;;;;;;;;;;30.26;26.37;99452.59;1698602;84;20144;-67
2022/06/07 11:10:50;;;;;;;;;;;;;;;30.72;27.17;99433.50;1699196;84;20119;-65
2022/06/07 11:13:27;;;;;;;;;;;;;;;30.83;27.14;99431.10;1699271;84;21781;-65
2022/06/07 11:16:13;;;;;;;;;;;;;;;31.03;27.67;99421.53;1699308;84;20115;-65
2022/06/07 11:18:40;;;;;;;;;;;;;;;31.09;29.09;99424.75;1698119;84;20180;-68
2022/06/07 11:21:27;;;;;;;;;;;;;;;31.03;26.90;99422.33;1687316;84;20503;-68
2022/06/07 11:24:07;;;;;;;;;;;;;;;30.86;26.71;99418.85;1687369;85;20172;-68
2022/06/07 11:26:57;;;;;;;;;;;;;;;30.69;29.54;99410.95;1686933;85;21110;-66
2022/06/07 11:29:27;;;;;;;;;;;;;;;30.63;28.41;99428.35;1687414;84;20139;-66
2022/06/07 11:31:54;;;;;;;;;;;;;;;30.84;27.82;99419.94;1704696;84;20168;-66
2022/06/07 11:34:24;;;;;;;;;;;;;;;30.84;26.45;99417.73;1705025;84;20127;-66
2022/06/07 11:36:51;;;;;;;;;;;;;;;30.65;25.96;99410.27;1704404;83;20123;-67
2022/06/07 11:39:27;;;;;;;;;;;;;;;30.56;27.44;99409.55;1704230;83;21151;-66
2022/06/07 11:42:00;;;;;;;;;;;;;;;30.63;29.17;99400.81;1704736;84;20421;-67
2022/06/07 11:44:36;;;;;;;;;;;;;;;30.74;27.76;99401.88;1704371;84;20099;-67
2022/06/07 11:47:17;;;;;;;;;;;;;;;30.89;26.95;99401.56;1704730;84;20158;-69
2022/06/07 11:49:54;;;;;;;;;;;;;;;31.00;26.50;99389.86;1704414;84;20113;-68
2022/06/07 11:52:27;;;;;;;;;;;;;;;31.16;26.54;99395.39;1703388;84;21134;-68
2022/06/07 11:54:57;;;;;;;;;;;;;;;31.17;25.75;99395.55;1704166;84;20135;-68
2022/06/07 11:57:38;;;;;;;;;;;;;;;31.01;26.49;99402.16;1704238;84;20131;-68
2022/06/07 12:00:21;;;;;;;;;;;;;;;30.98;25.37;99395.19;1704126;84;20167;-69
2022/06/07 12:03:01;;;;;;;;;;;;;;;31.13;26.53;99392.84;1682888;84;20113;-69
2022/06/07 12:05:56;;;;;;;;;;;;;;;31.19;25.52;99386.75;1679858;84;21258;-68
2022/06/07 12:08:28;;;;;;;;;;;;;;;31.13;27.55;99385.76;1704646;84;20128;-68
2022/06/07 12:11:20;;;;;;;;;;;;;;;31.08;26.97;99382.06;1704697;84;20124;-68
2022/06/07 12:13:49;;;;;;;;;;;;;;;31.00;26.36;99383.56;1704807;84;20115;-67
2022/06/07 12:16:39;;;;;;;;;;;;;;;31.15;27.10;99386.72;1704707;84;20127;-67
2022/06/07 12:19:28;;;;;;;;;;;;;;;31.20;26.09;99373.34;1699722;84;22155;-67
2022/06/07 12:22:01;;;;;;;;;;;;;;;31.23;26.46;99373.05;1701707;84;20148;-66
2022/06/07 12:24:28;;;;;;;;;;;;;;;31.14;28.69;99373.80;1696379;84;20079;-66
2022/06/07 12:26:55;;;;;;;;;;;;;;;31.22;26.72;99369.42;1696071;84;20127;-67
2022/06/07 12:29:24;;;;;;;;;;;;;;;31.26;26.07;99369.29;1694875;84;20142;-66
2022/06/07 12:31:54;;;;;;;;;;;;;;;31.12;26.20;99365.72;1689716;84;21148;-67
2022/06/07 12:34:28;;;;;;;;;;;;;;;31.12;27.33;99363.50;1686520;84;20097;-67
2022/06/07 12:36:59;;;;;;;;;;;;;;;31.07;26.40;99362.05;1690562;84;20127;-66
2022/06/07 12:39:25;;;;;;;;;;;;;;;30.93;26.50;99362.55;1689364;84;20143;-66
2022/06/07 12:41:56;;;;;;;;;;;;;;;30.93;27.21;99361.77;1692495;84;20087;-66
2022/06/07 12:44:26;;;;;;;;;;;;;;;31.05;27.70;99365.97;1702350;84;21815;-65
2022/06/07 12:46:54;;;;;;;;;;;;;;;31.30;27.47;99364.28;1702229;84;20142;-67
2022/06/07 12:49:27;;;;;;;;;;;;;;;31.34;26.99;99361.48;1701706;84;20434;-67
2022/06/07 12:51:57;;;;;;;;;;;;;;;31.53;25.88;99352.47;1702003;84;20592;-67
2022/06/07 12:54:24;;;;;;;;;;;;;;;31.68;25.79;99349.91;1699814;82;20098;-69
2022/06/07 12:56:52;;;;;;;;;;;;;;;31.75;25.95;99342.55;1701570;84;21763;-66
2022/06/07 12:59:35;;;;;;;;;;;;;;;31.91;26.95;99340.08;1701823;84;20139;-65
2022/06/07 13:02:12;;;;;;;;;;;;;;;32.28;25.96;99336.78;1701999;84;20479;-66
2022/06/07 13:04:45;;;;;;;;;;;;;;;32.42;25.79;99339.01;1701798;83;20128;-66
2022/06/07 13:07:23;;;;;;;;;;;;;;;32.39;25.93;99334.27;1672577;85;20088;-66
2022/06/07 13:09:54;;;;;;;;;;;;;;;32.45;26.50;99331.75;1691218;84;20567;-66
2022/06/07 13:12:31;;;;;;;;;;;;;;;32.23;24.62;99330.30;1702411;84;20113;-67
2022/06/07 13:15:00;;;;;;;;;;;;;;;31.79;24.71;99328.98;1702331;83;20093;-68
2022/06/07 13:17:33;;;;;;;;;;;;;;;31.59;25.70;99331.39;1705793;83;20125;-67
2022/06/07 13:20:00;;;;;;;;;;;;;;;31.51;25.00;99330.87;1714920;83;20097;-66
2022/06/07 13:22:29;;;;;;;;;;;;;;;31.48;25.50;99324.08;1725121;83;21895;-66
2022/06/07 13:25:17;;;;;;;;;;;;;;;31.74;25.06;99322.52;1725040;83;20463;-67
2022/06/07 13:27:51;;;;;;;;;;;;;;;32.14;24.50;99322.52;1725238;83;20085;-67
2022/06/07 13:30:24;;;;;;;;;;;;;;;32.57;25.32;99322.16;1722669;83;20097;-67
2022/06/07 13:33:20;;;;;;;;;;;;;;;32.87;24.26;99315.59;1725127;83;20085;-67